createdAt,value
2022-08-28T08:29:37.744Z,96819.41
2022-08-28T08:31:40.962Z,96819.63
2022-08-28T08:33:49.178Z,96821.13
2022-08-28T08:35:52.139Z,96822.16
2022-08-28T08:37:54.950Z,96826.41
2022-08-28T08:40:00.758Z,96833.94
2022-08-28T08:42:08.081Z,96837.13
2022-08-28T08:44:23.417Z,96845.19
2022-08-28T08:46:47.327Z,96837.53
2022-08-28T08:48:50.216Z,96837.22
2022-08-28T08:50:55.368Z,96840.16
2022-08-28T08:53:13.648Z,96839.88
2022-08-28T08:55:28.233Z,96831.47
2022-08-28T08:57:31.760Z,96840.63
2022-08-28T08:59:38.399Z,96843.06
2022-08-28T09:01:48.524Z,96841.69
2022-08-28T09:03:58.140Z,96837.38
2022-08-28T09:06:06.738Z,96840.31
2022-08-28T09:08:16.626Z,96843.25
2022-08-28T09:10:19.560Z,96845.41
2022-08-28T09:12:25.256Z,96843.44
2022-08-28T09:14:37.553Z,96849.09
2022-08-28T09:16:45.413Z,96849.66
2022-08-28T09:18:49.418Z,96851.25
2022-08-28T09:20:54.036Z,96848.03
2022-08-28T09:22:57.065Z,96852.66
2022-08-28T09:25:00.281Z,96853.97
2022-08-28T09:27:05.922Z,96850.47
2022-08-28T09:29:17.058Z,96855.00
2022-08-28T09:31:32.657Z,96851.22
2022-08-28T09:33:42.127Z,96849.38
2022-08-28T09:35:44.945Z,96848.84
2022-08-28T09:37:47.756Z,96853.97
2022-08-28T09:39:50.720Z,96853.69
2022-08-28T09:42:15.741Z,96851.19
2022-08-28T09:44:18.894Z,96858.13
2022-08-28T09:46:25.694Z,96853.53
2022-08-28T09:48:35.723Z,96863.03
2022-08-28T09:50:42.399Z,96860.31
2022-08-28T09:52:46.238Z,96855.72
2022-08-28T09:54:50.943Z,96864.94
2022-08-28T09:56:54.055Z,96863.06
2022-08-28T09:59:00.137Z,96868.59
2022-08-28T10:01:15.522Z,96855.53
2022-08-28T10:03:22.820Z,96869.56
2022-08-28T10:05:38.693Z,96865.50
2022-08-28T10:07:47.782Z,96871.97
2022-08-28T10:09:57.430Z,96866.22
2022-08-28T10:12:11.148Z,96865.44
2022-08-28T10:14:38.403Z,96863.91
2022-08-28T10:16:52.489Z,96858.22
2022-08-28T10:19:04.769Z,96864.72
2022-08-28T10:21:16.231Z,96859.81
2022-08-28T10:23:30.372Z,96857.63
2022-08-28T10:25:44.617Z,96855.41
2022-08-28T10:27:59.100Z,96850.22
2022-08-28T10:30:12.471Z,96853.44
2022-08-28T10:32:36.122Z,96854.56
2022-08-28T10:34:53.143Z,96857.00
2022-08-28T10:37:05.374Z,96849.41
2022-08-28T10:39:22.068Z,96852.06
2022-08-28T10:41:29.942Z,96853.44
2022-08-28T10:43:37.844Z,96859.22
2022-08-28T10:45:42.429Z,96853.03
2022-08-28T10:47:52.003Z,96860.84
2022-08-28T10:50:01.779Z,96855.94
2022-08-28T10:52:09.875Z,96847.28
2022-08-28T10:54:23.915Z,96854.34
2022-08-28T10:56:35.598Z,96850.00
2022-08-28T10:58:41.818Z,96853.22
2022-08-28T11:00:45.761Z,96853.66
2022-08-28T11:02:52.705Z,96862.56
2022-08-28T11:04:58.916Z,96845.53
2022-08-28T11:07:06.916Z,96855.72
2022-08-28T11:09:26.744Z,96850.75
2022-08-28T11:11:48.643Z,96853.63
2022-08-28T11:13:58.865Z,96855.47
2022-08-28T11:16:01.902Z,96857.38
2022-08-28T11:18:35.885Z,96855.75
2022-08-28T11:20:40.734Z,96858.97
2022-08-28T11:22:47.224Z,96860.28
2022-08-28T11:25:02.455Z,96857.06
2022-08-28T11:27:23.066Z,96850.03
2022-08-28T11:30:01.473Z,96855.91
2022-08-28T11:32:36.428Z,96856.44
2022-08-28T11:35:01.521Z,96855.56
2022-08-28T11:37:04.402Z,96850.94
2022-08-28T11:39:20.555Z,96849.84
2022-08-28T11:41:27.329Z,96852.84
2022-08-28T11:43:41.439Z,96849.34
2022-08-28T11:46:25.715Z,96853.16
2022-08-28T11:48:50.242Z,96854.78
2022-08-28T11:50:56.236Z,96847.84
2022-08-28T11:53:33.078Z,96847.34
2022-08-28T11:55:51.627Z,96848.94
2022-08-28T12:00:21.431Z,96845.72
2022-08-28T12:03:00.693Z,96843.00
2022-08-28T12:05:04.234Z,96837.00
2022-08-28T12:07:22.371Z,96831.00
2022-08-28T12:09:41.222Z,96835.84
2022-08-28T12:12:02.751Z,96833.13
2022-08-28T12:14:06.098Z,96837.47
2022-08-28T12:16:10.480Z,96843.69
2022-08-28T12:18:40.323Z,96843.41
2022-08-28T12:20:59.756Z,96842.00
2022-08-28T12:23:06.492Z,96848.75
2022-08-28T12:25:19.831Z,96848.75
2022-08-28T12:27:22.665Z,96842.22
2022-08-28T12:29:31.783Z,96839.47
2022-08-28T12:32:16.330Z,96843.28
2022-08-28T12:34:30.694Z,96843.28
2022-08-28T12:36:33.624Z,96843.59
2022-08-28T12:38:36.707Z,96843.78
2022-08-28T12:40:52.793Z,96832.38
2022-08-28T12:43:00.219Z,96831.06
2022-08-28T12:45:06.603Z,96823.44
2022-08-28T12:47:15.441Z,96834.56
2022-08-28T12:49:30.968Z,96820.53
2022-08-28T12:51:36.124Z,96825.94
2022-08-28T12:53:42.062Z,96827.53
2022-08-28T12:55:46.960Z,96822.13
2022-08-28T12:57:49.970Z,96826.44
2022-08-28T12:59:54.525Z,96823.06
2022-08-28T13:02:03.194Z,96828.59
2022-08-28T13:04:26.470Z,96821.56
2022-08-28T13:06:31.678Z,96819.66
2022-08-28T13:08:35.773Z,96817.03
2022-08-28T13:10:42.059Z,96813.78
2022-08-28T13:12:56.063Z,96813.25
2022-08-28T13:15:00.359Z,96812.69
2022-08-28T13:17:03.388Z,96813.25
2022-08-28T13:19:32.229Z,96804.03
2022-08-28T13:21:37.336Z,96805.66
2022-08-28T13:23:40.273Z,96795.09
2022-08-28T13:25:43.368Z,96798.31
2022-08-28T13:27:46.325Z,96798.31
2022-08-28T13:30:09.235Z,96794.19
2022-08-28T13:32:18.464Z,96790.09
2022-08-28T13:34:25.899Z,96790.34
2022-08-28T13:36:38.798Z,96791.97
2022-08-28T13:38:41.622Z,96794.06
2022-08-28T13:40:58.827Z,96786.75
2022-08-28T13:43:06.993Z,96786.47
2022-08-28T13:45:10.766Z,96784.00
2022-08-28T13:47:13.991Z,96792.63
2022-08-28T13:49:16.901Z,96781.78
2022-08-28T13:51:27.543Z,96782.09
2022-08-28T13:53:31.840Z,96783.16
2022-08-28T13:55:35.181Z,96775.34
2022-08-28T13:57:38.022Z,96771.25
2022-08-28T13:59:40.867Z,96767.66
2022-08-28T14:02:02.089Z,96765.16
2022-08-28T14:04:05.242Z,96767.31
2022-08-28T14:06:11.938Z,96765.41
2022-08-28T14:08:14.945Z,96765.97
2022-08-28T14:10:19.354Z,96757.53
2022-08-28T14:12:22.213Z,96769.72
2022-08-28T14:14:34.174Z,96763.50
2022-08-28T14:16:39.820Z,96763.78
2022-08-28T14:18:42.815Z,96758.38
2022-08-28T14:20:45.573Z,96763.19
2022-08-28T14:22:48.421Z,96762.31
2022-08-28T14:24:51.222Z,96757.41
2022-08-28T14:26:56.269Z,96759.59
2022-08-28T14:28:59.974Z,96753.16
2022-08-28T14:31:09.878Z,96753.38
2022-08-28T14:33:18.616Z,96746.56
2022-08-28T14:35:21.630Z,96746.00
2022-08-28T14:37:24.507Z,96748.91
2022-08-28T14:39:28.924Z,96745.41
2022-08-28T14:41:31.658Z,96742.41
2022-08-28T14:43:35.813Z,96748.03
2022-08-28T14:45:43.840Z,96736.06
2022-08-28T14:47:46.693Z,96742.03
2022-08-28T14:49:49.648Z,96741.22
2022-08-28T14:51:54.092Z,96738.44
2022-08-28T14:53:56.938Z,96729.00
2022-08-28T14:55:59.960Z,96740.84
2022-08-28T14:58:02.813Z,96738.94
2022-08-28T15:00:08.923Z,96738.66
2022-08-28T15:02:19.221Z,96730.22
2022-08-28T15:04:26.061Z,96728.84
2022-08-28T15:06:28.992Z,96732.06
2022-08-28T15:08:32.101Z,96730.16
2022-08-28T15:10:34.960Z,96732.06
2022-08-28T15:12:38.057Z,96726.66
2022-08-28T15:14:41.137Z,96729.34
2022-08-28T15:16:59.251Z,96732.56
2022-08-28T15:19:03.040Z,96728.75
2022-08-28T15:21:07.648Z,96734.69
2022-08-28T15:23:11.408Z,96733.59
2022-08-28T15:25:14.508Z,96730.06
2022-08-28T15:27:17.329Z,96730.88
2022-08-28T15:29:20.443Z,96721.94
2022-08-28T15:31:24.562Z,96726.25
2022-08-28T15:33:28.884Z,96725.44
2022-08-28T15:35:33.656Z,96720.81
2022-08-28T15:37:36.456Z,96723.28
2022-08-28T15:39:56.584Z,96724.06
2022-08-28T15:42:01.343Z,96730.31
2022-08-28T15:44:05.077Z,96728.09
2022-08-28T15:46:13.042Z,96721.06
2022-08-28T15:48:16.007Z,96725.38
2022-08-28T15:50:20.669Z,96727.28
2022-08-28T15:52:24.490Z,96724.28
2022-08-28T15:54:27.755Z,96728.91
2022-08-28T15:56:30.619Z,96731.09
2022-08-28T15:58:33.423Z,96725.97
2022-08-28T16:00:36.704Z,96728.69
2022-08-28T16:02:39.721Z,96727.88
2022-08-28T16:04:42.561Z,96727.88
2022-08-28T16:06:47.032Z,96721.63
2022-08-28T16:08:50.585Z,96731.69
2022-08-28T16:10:54.308Z,96736.28
2022-08-28T16:12:57.703Z,96728.47
2022-08-28T16:15:00.924Z,96732.28
2022-08-28T16:17:05.662Z,96733.06
2022-08-28T16:19:13.787Z,96729.06
2022-08-28T16:21:17.212Z,96733.69
2022-08-28T16:23:21.454Z,96729.66
2022-08-28T16:25:24.367Z,96726.44
2022-08-28T16:27:27.353Z,96726.44
2022-08-28T16:29:30.190Z,96724.00
2022-08-28T16:31:34.221Z,96722.41
2022-08-28T16:33:37.187Z,96725.09
2022-08-28T16:35:49.156Z,96721.88
2022-08-28T16:37:58.856Z,96719.75
2022-08-28T16:40:03.841Z,96724.38
2022-08-28T16:42:07.117Z,96719.25
2022-08-28T16:44:09.910Z,96727.38
2022-08-28T16:46:18.749Z,96725.25
2022-08-28T16:48:21.679Z,96722.53
2022-08-28T16:50:26.892Z,96725.53
2022-08-28T16:52:29.843Z,96725.84
2022-08-28T16:54:32.816Z,96721.53
2022-08-28T16:56:37.583Z,96731.25
2022-08-28T16:58:41.461Z,96731.56
2022-08-28T17:00:52.921Z,96730.75
2022-08-28T17:02:57.999Z,96729.94
2022-08-28T17:05:01.935Z,96726.72
2022-08-28T17:07:05.131Z,96726.72
2022-08-28T17:09:08.130Z,96724.31
2022-08-28T17:11:12.167Z,96723.53
2022-08-28T17:13:16.469Z,96722.72
2022-08-28T17:15:19.847Z,96721.88
2022-08-28T17:17:22.653Z,96716.75
2022-08-28T17:19:26.449Z,96722.47
2022-08-28T17:21:46.713Z,96715.44
2022-08-28T17:23:49.758Z,96724.38
2022-08-28T17:25:52.732Z,96722.78
2022-08-28T17:27:56.427Z,96729.28
2022-08-28T17:30:01.473Z,96726.59
2022-08-28T17:32:05.304Z,96725.78
2022-08-28T17:34:08.463Z,96725.78
2022-08-28T17:36:32.850Z,96729.88
2022-08-28T17:38:37.871Z,96730.69
2022-08-28T17:40:41.345Z,96735.81
2022-08-28T17:42:45.660Z,96733.09
2022-08-28T17:44:48.430Z,96735.31
2022-08-28T17:46:53.177Z,96738.31
2022-08-28T17:48:56.414Z,96734.81
2022-08-28T17:51:01.792Z,96734.00
2022-08-28T17:53:04.911Z,96740.78
2022-08-28T17:55:09.113Z,96751.31
2022-08-28T17:57:11.933Z,96752.13
2022-08-28T17:59:16.417Z,96746.19
2022-08-28T18:01:20.504Z,96760.53
2022-08-28T18:03:24.672Z,96757.03
2022-08-28T18:05:27.734Z,96761.94
2022-08-28T18:07:30.981Z,96772.28
2022-08-28T18:09:33.793Z,96763.34
2022-08-28T18:11:37.432Z,96778.78
2022-08-28T18:13:40.378Z,96770.97
2022-08-28T18:15:43.725Z,96767.44
2022-08-28T18:17:54.080Z,96775.56
2022-08-28T18:19:59.975Z,96778.28
2022-08-28T18:22:02.797Z,96779.88
2022-08-28T18:24:08.361Z,96776.38
2022-08-28T18:26:11.267Z,96771.75
2022-08-28T18:28:19.613Z,96770.16
2022-08-28T18:30:25.230Z,96768.25
2022-08-28T18:32:28.713Z,96777.97
2022-08-28T18:34:31.710Z,96783.69
2022-08-28T18:36:36.232Z,96783.69
2022-08-28T18:38:40.027Z,96779.38
2022-08-28T18:40:43.928Z,96786.41
2022-08-28T18:42:46.947Z,96784.81
2022-08-28T18:44:49.717Z,96792.38
2022-08-28T18:46:52.641Z,96785.66
2022-08-28T18:48:55.559Z,96784.56
2022-08-28T18:50:58.481Z,96783.75
2022-08-28T18:53:03.023Z,96795.09
2022-08-28T18:55:08.573Z,96795.63
2022-08-28T18:57:11.689Z,96804.81
2022-08-28T18:59:14.940Z,96802.94
2022-08-28T19:01:18.244Z,96806.47
2022-08-28T19:03:21.282Z,96818.91
2022-08-28T19:05:24.401Z,96816.19
2022-08-28T19:07:27.454Z,96818.91
2022-08-28T19:09:32.637Z,96814.28
2022-08-28T19:11:37.590Z,96821.63
2022-08-28T19:13:43.606Z,96827.03
2022-08-28T19:15:50.934Z,96824.88
2022-08-28T19:17:53.928Z,96818.09
2022-08-28T19:19:57.390Z,96818.09
2022-08-28T19:22:01.714Z,96831.66
2022-08-28T19:24:05.142Z,96815.66
2022-08-28T19:26:09.834Z,96821.06
2022-08-28T19:28:12.797Z,96828.13
2022-08-28T19:30:18.503Z,96844.38
2022-08-28T19:32:27.027Z,96842.75
2022-08-28T19:34:30.047Z,96841.13
2022-08-28T19:36:33.088Z,96843.34
2022-08-28T19:38:36.024Z,96851.16
2022-08-28T19:40:39.921Z,96844.94
2022-08-28T19:42:44.142Z,96844.44
2022-08-28T19:44:51.131Z,96842.00
2022-08-28T19:47:02.697Z,96853.16
2022-08-28T19:49:06.818Z,96853.16
2022-08-28T19:51:17.458Z,96866.69
2022-08-28T19:53:25.883Z,96874.81
2022-08-28T19:55:29.530Z,96878.63
2022-08-28T19:57:32.514Z,96876.19
2022-08-28T19:59:37.067Z,96878.66
2022-08-28T20:01:43.657Z,96878.94
2022-08-28T20:03:46.886Z,96882.97
2022-08-28T20:05:50.008Z,96886.28
2022-08-28T20:07:53.300Z,96874.91
2022-08-28T20:09:56.097Z,96876.81
2022-08-28T20:12:00.774Z,96877.13
2022-08-28T20:14:06.169Z,96874.69
2022-08-28T20:16:11.319Z,96870.09
2022-08-28T20:18:14.378Z,96870.59
2022-08-28T20:20:20.550Z,96873.31
2022-08-28T20:22:23.412Z,96880.34
2022-08-28T20:24:26.197Z,96876.03
2022-08-28T20:26:29.195Z,96879.81
2022-08-28T20:28:32.744Z,96872.81
2022-08-28T20:30:35.704Z,96885.78
2022-08-28T20:32:41.171Z,96884.19
2022-08-28T20:34:44.699Z,96893.09
2022-08-28T20:36:48.273Z,96893.91
